CEF2 weather

Belwood (Ellen Field)
Ontario, Canada

Public forecast

Using degrees Celsius for public forecast. Weather courtesy of forecast.io.

METAR (pilot weather report)

Closest report is Waterloo Airport, 22.6 nm (41.9 km) S. Retrieved 2019/09/15 12:00 UTC (27 minutes ago):

CYKF 151200Z AUTO 00000KT 5SM BR BKN130 BKN160 11/11 A3017 RMK SLP220

TAF (pilot weather forecast)

Closest forecast is Waterloo Airport, 22.6 nm (41.9 km) S. Retrieved 2019/09/15 08:39 UTC (4 hours ago):

TAF TAF CYKF 150738Z 1508/1520 VRB03KT P6SM SKC TEMPO 1508/1513 1SM BR PROB30 1508/1512 1/2SM FG FM151300 VRB03KT P6SM BKN100 BKN160 FM151500 17005KT P6SM OVC040 TEMPO 1516/1519 P6SM -SHRA BKN015 OVC030 FM151900 19005KT P6SM OVC015 RMK FCST BASED ON AUTO OBS. NXT FCST BY 151400Z